Minot Air Force Base
KMIB : now visible

Airfield :











YOU CAN JOIN US ON...

 
LOGIN :

Register | Disclaimer

   EN    FR    IT 

 









Legend :    VFR   Marginal VFR   IFR   Intensive IFR   Very Intensive IFR
Visi :
Ceiling :
>= 8 km
>= 3000ft
5 to 8 km
1000 to 3000 ft
1500m to 5 km
500 to 1000 ft
800 to 1500m
200 to 500 ft
< 800m
< 200 ft
Symbols :   Thunderstorms  Fog  Heavy snow  Heavy precipitations  Wind > 20 kt






- Airport Elevation : 1667 ft


KMIB - Minot Air Force Base

CURRENT METAR :
  • 282056Z AUTO 34025G37KT 10SM SCT060 19/04 A3009 RMK AO2 PK WND 35037/47 SLP197 T01890039 56004 $

EXPIRED METARs :
  • 281956Z AUTO 34024G32KT 10SM FEW055 19/04 A3010 RMK AO2 PK WND 33037/10 SLP199 T01870041 $
  • 281856Z AUTO 33023G32KT 10SM FEW049 18/05 A3011 RMK AO2 PK WND 35037/25 SLP203 T01810046 $

TAF AMD TAF KMIB
Valid from the 28 at 20:00 until the 29 at 23:00 UTC


282054Z 2820/2923 31025G35KT 9999 BKN030 520003 QNH3010INS
BECMG 2823/2824 33012G18KT 9999 SCT040 QNH3014INS
BECMG 2905/2906 VRB06KT 9999 FEW040 QNH3018INS TX19/2823Z TN08/2911Z
KZMP FIR / North America



MET'MAP, your aeronautical weather chart ! - Copyright ORBIFLY December 2007 - Disclaimer

ORBIFLY MET'MAP TEAM :

Programming & Development : Alexandra Zaïnal
Concept & original design : Baudouin d'Aumeries
Assistance for programming : Marc-Olivier Méhu
Technical & hardware support : Manuel Goepfert

Contact : metmap@orbifly.com




SOURCES & CREDITS :

   NOAA       Earth
Advisory